Time;durP1;ratioP1;P1;durP2;ratioP2;P2;SDS_P1;SDS_P2;PMS_P1;PMS_P2;Temp;Humidity;BMP_temperature;BMP_pressure;BME280_temperature;BME280_humidity;BME280_pressure;Samples;Min_cycle;Max_cycle;Signal;HPM_P1;HPM_P2
2022/07/07 05:03:40;;;;;;;4.03;1.67;;;16.60;81.00;;;;;;4987847;23;20086;-78
2022/07/07 05:06:06;;;;;;;3.60;1.38;;;16.50;81.70;;;;;;4961875;29;20032;-81
2022/07/07 05:08:32;;;;;;;3.85;1.60;;;16.50;81.90;;;;;;4957760;28;20035;-79
2022/07/07 05:10:57;;;;;;;2.25;0.85;;;16.60;81.80;;;;;;4950922;29;20039;-79
2022/07/07 05:13:23;;;;;;;4.10;1.20;;;16.70;78.80;;;;;;4946631;29;20032;-79
2022/07/07 05:15:49;;;;;;;5.18;1.80;;;16.70;80.50;;;;;;4953140;29;20143;-79
2022/07/07 05:18:16;;;;;;;6.20;1.40;;;16.70;81.50;;;;;;4964533;29;20071;-78
2022/07/07 05:20:41;;;;;;;2.85;1.23;;;16.90;81.60;;;;;;4978763;28;20022;-78
2022/07/07 05:23:07;;;;;;;4.30;1.20;;;16.90;81.90;;;;;;4979090;28;20015;-79
2022/07/07 05:25:33;;;;;;;3.25;1.50;;;16.90;79.70;;;;;;4968857;28;20059;-79
2022/07/07 05:27:59;;;;;;;3.92;1.45;;;17.00;80.60;;;;;;4966508;29;20031;-78
2022/07/07 05:30:25;;;;;;;4.78;1.10;;;17.00;80.70;;;;;;4965889;28;20343;-79
2022/07/07 05:32:54;;;;;;;3.22;1.13;;;17.10;79.00;;;;;;4965920;28;20066;-78
2022/07/07 05:35:20;;;;;;;3.63;1.10;;;17.20;77.80;;;;;;4961151;29;20332;-78
2022/07/07 05:37:46;;;;;;;3.80;1.33;;;17.20;77.10;;;;;;4946687;29;20036;-77
2022/07/07 05:40:12;;;;;;;3.35;0.98;;;17.20;77.80;;;;;;4946951;29;20035;-79
2022/07/07 05:42:42;;;;;;;3.85;1.27;;;17.30;77.00;;;;;;4956282;29;20041;-79
2022/07/07 05:45:08;;;;;;;3.60;1.15;;;17.40;76.20;;;;;;4960732;29;20035;-79
2022/07/07 05:47:34;;;;;;;2.92;1.10;;;17.60;76.70;;;;;;4944828;29;20032;-78
2022/07/07 05:49:59;;;;;;;2.83;1.20;;;17.70;77.20;;;;;;4953556;29;20065;-79
2022/07/07 05:52:26;;;;;;;3.17;1.00;;;17.90;76.00;;;;;;4964806;29;20034;-78
2022/07/07 05:54:51;;;;;;;3.10;0.90;;;17.90;75.00;;;;;;4964449;29;20030;-79
2022/07/07 05:57:17;;;;;;;2.05;0.63;;;18.00;75.50;;;;;;4964571;28;20051;-79
2022/07/07 05:59:46;;;;;;;2.47;1.00;;;18.10;74.30;;;;;;4964767;28;20038;-79
2022/07/07 06:02:12;;;;;;;3.88;1.00;;;18.30;74.40;;;;;;4959952;28;20091;-79
2022/07/07 06:04:38;;;;;;;3.17;1.00;;;18.40;73.60;;;;;;4945068;29;20241;-78
2022/07/07 06:07:04;;;;;;;3.75;1.00;;;18.50;73.20;;;;;;4943744;29;20031;-79
2022/07/07 06:09:30;;;;;;;3.05;0.85;;;18.60;73.00;;;;;;4949679;29;20023;-79
2022/07/07 06:11:56;;;;;;;1.98;0.80;;;18.80;72.60;;;;;;4979016;28;20031;-79
2022/07/07 06:14:21;;;;;;;4.03;1.38;;;19.00;72.00;;;;;;4964322;29;20261;-79
2022/07/07 06:16:47;;;;;;;5.97;1.55;;;19.30;73.20;;;;;;4963356;28;20039;-80
2022/07/07 06:19:14;;;;;;;5.00;1.48;;;19.60;73.80;;;;;;4979302;28;20051;-80
2022/07/07 06:21:41;;;;;;;5.22;1.70;;;19.90;72.60;;;;;;4964228;28;20046;-81
2022/07/07 06:24:07;;;;;;;6.70;1.65;;;20.10;72.00;;;;;;4963576;28;20359;-79
2022/07/07 06:26:34;;;;;;;7.38;2.42;;;20.30;72.40;;;;;;4964506;28;20039;-79
2022/07/07 06:29:00;;;;;;;3.67;1.00;;;20.40;71.50;;;;;;4964175;28;20043;-79
2022/07/07 06:31:26;;;;;;;6.20;2.00;;;20.50;69.50;;;;;;4979085;28;20065;-80
2022/07/07 06:33:54;;;;;;;6.97;1.80;;;20.50;70.80;;;;;;4963564;28;20046;-81
2022/07/07 06:36:20;;;;;;;4.97;1.30;;;20.60;71.00;;;;;;4979309;28;20023;-80
2022/07/07 06:38:46;;;;;;;4.45;1.40;;;20.60;70.50;;;;;;4964251;28;20027;-80
2022/07/07 06:41:11;;;;;;;8.05;1.15;;;20.70;69.60;;;;;;4963419;29;20198;-80
2022/07/07 06:43:38;;;;;;;2.67;0.90;;;20.90;68.10;;;;;;4957809;28;20042;-80
2022/07/07 06:46:04;;;;;;;2.47;0.90;;;21.10;67.70;;;;;;4925188;29;20044;-79
2022/07/07 06:48:30;;;;;;;4.47;1.00;;;21.40;67.10;;;;;;4956256;29;20314;-79
2022/07/07 06:50:56;;;;;;;2.92;1.00;;;21.50;67.00;;;;;;4955987;29;20091;-79
2022/07/07 06:53:22;;;;;;;2.97;1.00;;;21.50;66.70;;;;;;4924774;29;20044;-78
2022/07/07 06:55:47;;;;;;;3.97;1.10;;;21.50;66.60;;;;;;4925934;29;20031;-79
2022/07/07 06:58:13;;;;;;;3.33;1.25;;;21.50;67.10;;;;;;4959760;29;20219;-80
2022/07/07 07:00:39;;;;;;;3.95;1.35;;;21.50;66.80;;;;;;4959877;28;20090;-79
2022/07/07 07:03:05;;;;;;;3.20;1.30;;;21.40;67.10;;;;;;4949322;29;20052;-78
2022/07/07 07:05:31;;;;;;;4.43;1.20;;;21.50;67.20;;;;;;4981256;28;20372;-79
2022/07/07 07:08:00;;;;;;;3.80;1.50;;;21.50;66.80;;;;;;4972441;28;20038;-80
2022/07/07 07:10:47;;;;;;;4.82;1.48;;;21.50;67.10;;;;;;4974832;29;20015;-80
2022/07/07 07:13:28;;;;;;;3.65;1.20;;;21.60;66.90;;;;;;4978716;28;20043;-82
2022/07/07 07:16:00;;;;;;;4.30;1.63;;;21.70;66.50;;;;;;4959583;28;20238;-77
2022/07/07 07:18:57;;;;;;;3.42;1.38;;;21.90;66.40;;;;;;4959578;29;20047;-79
2022/07/07 07:21:23;;;;;;;7.47;1.20;;;21.90;65.90;;;;;;4943234;29;20051;-79
2022/07/07 07:23:49;;;;;;;2.85;1.00;;;22.00;65.80;;;;;;4944685;29;20046;-78
2022/07/07 07:26:15;;;;;;;5.75;1.40;;;22.20;66.30;;;;;;4960031;29;20325;-79
2022/07/07 07:28:41;;;;;;;3.58;1.10;;;22.20;66.00;;;;;;4945346;29;20054;-81
2022/07/07 07:31:19;;;;;;;2.78;1.10;;;22.30;65.90;;;;;;4960268;28;20050;-82
2022/07/07 07:33:44;;;;;;;6.88;1.25;;;22.40;65.40;;;;;;4945752;29;20047;-80
2022/07/07 07:36:10;;;;;;;4.00;0.98;;;22.30;65.70;;;;;;4960759;29;20074;-81
2022/07/07 07:38:49;;;;;;;3.70;1.30;;;22.50;65.40;;;;;;4945766;29;20032;-76
2022/07/07 07:41:18;;;;;;;4.10;1.15;;;22.30;65.90;;;;;;4944934;29;20091;-80
2022/07/07 07:43:47;;;;;;;3.75;1.10;;;22.20;66.20;;;;;;4965723;28;20103;-80
2022/07/07 07:46:13;;;;;;;3.90;0.90;;;22.10;66.60;;;;;;4944636;29;20107;-83
2022/07/07 07:48:40;;;;;;;3.83;1.00;;;22.30;66.10;;;;;;4927983;29;20063;-79
2022/07/07 07:51:09;;;;;;;2.80;1.20;;;22.30;66.00;;;;;;4942179;29;20051;-80
2022/07/07 07:53:38;;;;;;;4.82;1.10;;;22.00;66.70;;;;;;4944524;29;20036;-77
2022/07/07 07:56:16;;;;;;;4.40;1.35;;;22.00;67.20;;;;;;4945007;29;20182;-82
2022/07/07 07:58:41;;;;;;;5.13;1.40;;;21.90;67.50;;;;;;4944692;29;20040;-81
2022/07/07 08:01:09;;;;;;;4.47;1.20;;;21.80;68.40;;;;;;4945821;29;20115;-83
2022/07/07 08:03:38;;;;;;;2.78;1.20;;;21.80;68.30;;;;;;4942057;29;20115;-81
2022/07/07 08:06:04;;;;;;;2.80;1.25;;;21.90;68.30;;;;;;4944675;29;20036;-82
2022/07/07 08:08:32;;;;;;;4.32;1.20;;;21.60;68.70;;;;;;4959587;29;20055;-80
2022/07/07 08:10:58;;;;;;;;;;;21.40;69.00;;;;;;4945432;29;20036;-81
2022/07/07 08:13:27;;;;;;;3.42;1.20;;;21.20;69.40;;;;;;4963356;29;19906;-79
2022/07/07 08:15:53;;;;;;;6.20;1.30;;;21.00;70.80;;;;;;4950549;29;20031;-80
2022/07/07 08:18:19;;;;;;;5.28;1.40;;;20.80;70.90;;;;;;4957143;28;20023;-81
2022/07/07 08:20:45;;;;;;;3.00;1.20;;;20.90;70.80;;;;;;4965045;29;20031;-82
2022/07/07 08:23:19;;;;;;;2.53;1.10;;;20.90;70.80;;;;;;4947692;29;20035;-81
2022/07/07 08:25:45;;;;;;;5.68;1.60;;;21.00;70.60;;;;;;4948011;29;20079;-80
2022/07/07 08:28:11;;;;;;;4.30;1.20;;;21.20;70.40;;;;;;4947732;29;20043;-84
2022/07/07 08:30:40;;;;;;;4.05;1.60;;;21.30;70.60;;;;;;4946952;29;20082;-82
2022/07/07 08:33:06;;;;;;;3.58;1.40;;;21.30;70.40;;;;;;4947361;29;20225;-83
2022/07/07 08:35:35;;;;;;;4.70;1.60;;;21.60;70.20;;;;;;4962839;29;20034;-79
2022/07/07 08:38:04;;;;;;;5.00;1.60;;;21.50;70.40;;;;;;4945727;29;20035;-81
2022/07/07 08:40:44;;;;;;;3.53;1.40;;;21.70;70.00;;;;;;4946030;29;20096;-82
2022/07/07 08:43:12;;;;;;;4.50;1.50;;;21.90;69.70;;;;;;4958071;29;20288;-78
2022/07/07 08:45:48;;;;;;;4.32;1.67;;;21.90;69.80;;;;;;4927296;29;20360;-78
2022/07/07 08:48:23;;;;;;;4.28;1.65;;;21.70;70.10;;;;;;4926106;29;20112;-79
2022/07/07 08:50:49;;;;;;;4.97;1.70;;;21.80;70.10;;;;;;4927682;29;20035;-82
2022/07/07 08:53:18;;;;;;;4.90;1.48;;;21.90;70.50;;;;;;4941993;29;20316;-80
2022/07/07 08:55:47;;;;;;;4.82;1.50;;;22.00;70.20;;;;;;4927859;29;20052;-80
2022/07/07 08:58:15;;;;;;;4.00;1.67;;;21.90;70.00;;;;;;4945437;29;20336;-82
2022/07/07 09:00:49;;;;;;;4.95;1.65;;;21.90;70.50;;;;;;4946693;29;20202;-81
2022/07/07 09:03:21;;;;;;;6.60;1.60;;;21.90;71.00;;;;;;4960484;29;20052;-81
2022/07/07 09:05:49;;;;;;;6.03;1.52;;;22.10;70.90;;;;;;4944763;29;20027;-83
2022/07/07 09:08:22;;;;;;;4.90;1.45;;;22.20;70.80;;;;;;4946246;29;20217;-80
2022/07/07 09:11:06;;;;;;;5.65;1.85;;;22.50;70.80;;;;;;4946193;29;20036;-81
2022/07/07 09:13:33;;;;;;;6.32;1.88;;;22.90;70.10;;;;;;4945777;29;20273;-78
2022/07/07 09:16:13;;;;;;;5.45;1.75;;;23.10;69.60;;;;;;4963460;28;20110;-80
2022/07/07 09:18:57;;;;;;;4.30;1.85;;;23.00;69.80;;;;;;4980082;28;20039;-81
2022/07/07 09:21:36;;;;;;;3.75;1.77;;;23.10;69.40;;;;;;4980180;28;20027;-81
2022/07/07 09:24:06;;;;;;;8.38;2.40;;;22.90;70.20;;;;;;4979520;28;20064;-82
2022/07/07 09:26:47;;;;;;;2.83;1.58;;;22.80;70.50;;;;;;4970699;28;20028;-81
2022/07/07 09:29:15;;;;;;;2.88;1.40;;;22.60;71.60;;;;;;4945732;29;20095;-81
2022/07/07 09:32:08;;;;;;;4.90;0.88;;;22.30;72.60;;;;;;4945708;29;20047;-81
2022/07/07 09:34:43;;;;;;;1.75;0.90;;;22.00;73.80;;;;;;4960786;29;20039;-80
2022/07/07 09:39:57;;;;;;;4.25;0.90;;;21.80;75.50;;;;;;4945499;29;20055;-80
2022/07/07 09:42:33;;;;;;;2.58;0.98;;;21.60;76.20;;;;;;4957195;29;20054;-77
2022/07/07 09:45:07;;;;;;;3.55;1.00;;;21.30;77.40;;;;;;4940828;29;20313;-80
2022/07/07 09:47:33;;;;;;;2.70;1.25;;;21.10;78.50;;;;;;4945266;29;20067;-81
2022/07/07 09:50:08;;;;;;;6.07;0.90;;;21.00;79.10;;;;;;4945187;29;20027;-79
2022/07/07 09:52:36;;;;;;;3.28;1.45;;;21.00;79.70;;;;;;4945402;29;20039;-79
2022/07/07 09:55:04;;;;;;;2.83;1.40;;;21.00;81.70;;;;;;4945137;29;20174;-80
2022/07/07 09:57:30;;;;;;;2.20;1.30;;;20.80;82.20;;;;;;4960022;29;20027;-81
2022/07/07 09:59:56;;;;;;;3.25;1.10;;;20.80;81.90;;;;;;4944919;29;20067;-81
2022/07/07 10:02:26;;;;;;;3.78;1.30;;;20.90;81.20;;;;;;4943420;29;20376;-81
2022/07/07 10:04:56;;;;;;;6.15;1.20;;;21.20;80.20;;;;;;4945308;29;20019;-81
2022/07/07 10:07:33;;;;;;;3.97;1.20;;;21.70;78.10;;;;;;4945419;29;20067;-80
2022/07/07 10:10:07;;;;;;;2.42;1.00;;;21.90;76.70;;;;;;4959282;29;20028;-80
2022/07/07 10:12:37;;;;;;;3.65;1.20;;;22.10;74.90;;;;;;4944622;29;20376;-80
2022/07/07 10:15:11;;;;;;;5.22;1.60;;;22.10;74.50;;;;;;4943479;29;20043;-81
2022/07/07 10:17:36;;;;;;;2.80;0.93;;;22.00;74.80;;;;;;4945352;29;20038;-81
2022/07/07 10:20:03;;;;;;;2.67;1.00;;;22.20;74.30;;;;;;4943847;29;20023;-81
2022/07/07 10:22:30;;;;;;;2.72;1.20;;;22.50;73.90;;;;;;4945080;29;20306;-80
2022/07/07 10:24:58;;;;;;;2.78;1.45;;;22.70;72.90;;;;;;4961015;29;20036;-80
2022/07/07 10:27:26;;;;;;;3.78;1.27;;;23.00;72.60;;;;;;4962059;29;20027;-80
2022/07/07 10:29:53;;;;;;;2.40;1.10;;;22.90;72.10;;;;;;4949663;29;20298;-79
2022/07/07 10:32:49;;;;;;;2.63;1.20;;;23.10;72.50;;;;;;4955650;28;20039;-83
2022/07/07 10:35:23;;;;;;;3.50;1.40;;;22.90;72.50;;;;;;4951359;29;20234;-81
2022/07/07 10:37:52;;;;;;;3.22;1.30;;;22.90;72.20;;;;;;4947514;29;20023;-78
2022/07/07 10:40:24;;;;;;;3.13;1.20;;;23.00;72.60;;;;;;4944029;29;20082;-79
2022/07/07 10:43:20;;;;;;;2.78;1.20;;;23.10;71.80;;;;;;4944091;29;20139;-75
2022/07/07 10:45:49;;;;;;;6.40;1.50;;;23.10;71.80;;;;;;4943917;29;20046;-75
2022/07/07 10:48:33;;;;;;;;;;;23.20;71.90;;;;;;4944855;29;20031;-74
2022/07/07 10:51:49;;;;;;;2.58;1.33;;;23.10;71.60;;;;;;4944329;29;19954;-75
2022/07/07 10:54:16;;;;;;;2.60;1.25;;;23.40;71.70;;;;;;4886917;29;20084;-73
2022/07/07 10:56:55;;;;;;;4.93;1.95;;;23.80;70.40;;;;;;4939681;29;20046;-74
2022/07/07 10:59:22;;;;;;;3.45;1.48;;;23.60;70.60;;;;;;4944056;29;20206;-74
2022/07/07 11:02:00;;;;;;;3.55;1.20;;;23.40;71.20;;;;;;4944177;29;20040;-76
2022/07/07 11:04:50;;;;;;;3.70;1.35;;;23.30;71.30;;;;;;4944828;29;20098;-77
2022/07/07 11:07:18;;;;;;;4.47;1.40;;;22.90;72.50;;;;;;4944471;29;20145;-77
2022/07/07 11:10:13;;;;;;;2.93;1.10;;;22.80;73.30;;;;;;4944998;29;20086;-77
2022/07/07 11:12:44;;;;;;;2.05;0.82;;;22.70;73.00;;;;;;4940113;29;20082;-75
2022/07/07 11:15:22;;;;;;;3.03;1.10;;;22.20;74.10;;;;;;4947159;29;20031;-75
2022/07/07 11:17:56;;;;;;;2.08;1.00;;;21.90;75.40;;;;;;4951033;29;20023;-76
2022/07/07 11:20:24;;;;;;;2.88;1.15;;;21.80;76.10;;;;;;4953974;28;20035;-76
2022/07/07 11:22:53;;;;;;;4.65;1.42;;;21.90;75.80;;;;;;4944580;29;20321;-74
2022/07/07 11:25:20;;;;;;;;;;;21.90;75.50;;;;;;4944877;29;20039;-75
2022/07/07 11:27:48;;;;;;;2.22;0.90;;;22.10;75.30;;;;;;4944569;29;19907;-76
2022/07/07 11:30:14;;;;;;;4.20;1.27;;;22.10;75.00;;;;;;4943343;28;20090;-75
2022/07/07 11:32:43;;;;;;;3.72;0.90;;;21.90;75.20;;;;;;4959281;29;20039;-75
2022/07/07 11:35:11;;;;;;;1.85;0.70;;;21.90;75.30;;;;;;4958496;29;20036;-75
2022/07/07 11:37:40;;;;;;;3.00;1.38;;;22.20;74.80;;;;;;4943646;29;20099;-75
2022/07/07 11:40:27;;;;;;;4.32;1.00;;;22.30;74.20;;;;;;4943756;29;20059;-75
2022/07/07 11:42:53;;;;;;;3.72;1.38;;;22.30;74.10;;;;;;4952378;29;20051;-75
2022/07/07 11:45:26;;;;;;;4.15;1.25;;;22.20;74.60;;;;;;4963365;28;20051;-75
2022/07/07 11:47:54;;;;;;;2.97;1.00;;;22.00;75.20;;;;;;4956728;28;20023;-76
2022/07/07 11:50:20;;;;;;;4.50;1.23;;;22.00;75.20;;;;;;4960134;28;20039;-76
2022/07/07 11:53:07;;;;;;;2.58;1.10;;;22.00;76.70;;;;;;4948051;29;20063;-75
2022/07/07 11:55:32;;;;;;;8.20;1.63;;;21.90;77.80;;;;;;4948068;29;20031;-75
2022/07/07 11:58:04;;;;;;;4.22;1.25;;;21.90;76.70;;;;;;4947423;29;20062;-76
2022/07/07 12:00:32;;;;;;;5.85;1.10;;;21.90;76.40;;;;;;4935597;29;20039;-74
2022/07/07 12:03:00;;;;;;;4.43;1.35;;;22.20;75.20;;;;;;4946893;29;20265;-76
2022/07/07 12:05:38;;;;;;;4.63;1.25;;;22.20;75.10;;;;;;4963059;29;20273;-74
2022/07/07 12:08:05;;;;;;;;;;;22.20;74.50;;;;;;4948412;29;20103;-75
2022/07/07 12:10:34;;;;;;;4.18;1.48;;;22.10;73.90;;;;;;4947867;29;19906;-77
2022/07/07 12:13:04;;;;;;;;;;;21.90;74.50;;;;;;4947971;29;20043;-79
2022/07/07 12:15:41;;;;;;;6.43;1.50;;;21.90;74.70;;;;;;4949805;28;19957;-81
2022/07/07 12:18:09;;;;;;;4.63;1.33;;;21.90;74.80;;;;;;4956572;28;20031;-81
2022/07/07 12:20:36;;;;;;;5.97;1.40;;;22.10;74.30;;;;;;4947536;29;20250;-80
2022/07/07 12:23:03;;;;;;;7.78;1.73;;;22.10;73.80;;;;;;4963695;29;20174;-82
2022/07/07 12:25:33;;;;;;;3.28;1.30;;;22.20;73.80;;;;;;4966957;29;20050;-82
2022/07/07 12:28:02;;;;;;;5.88;1.63;;;22.30;73.60;;;;;;4981722;28;20028;-79
2022/07/07 12:30:33;;;;;;;3.10;1.10;;;22.50;73.60;;;;;;4970548;28;20040;-80
2022/07/07 12:32:59;;;;;;;4.05;1.50;;;22.40;72.90;;;;;;4947210;29;20050;-81
2022/07/07 12:35:39;;;;;;;4.13;1.45;;;22.50;73.00;;;;;;4952631;29;20041;-82
2022/07/07 12:38:06;;;;;;;3.10;1.00;;;22.30;73.40;;;;;;4962163;29;20035;-80
2022/07/07 12:40:37;;;;;;;5.25;1.52;;;22.30;73.70;;;;;;4947253;29;20095;-81
2022/07/07 12:43:08;;;;;;;4.60;1.75;;;22.60;73.20;;;;;;4945619;29;20043;-81
2022/07/07 12:45:38;;;;;;;4.97;1.30;;;22.40;72.90;;;;;;4961999;29;20040;-83
2022/07/07 12:48:15;;;;;;;3.83;1.45;;;22.50;73.00;;;;;;4945577;29;20032;-81
2022/07/07 12:50:40;;;;;;;3.30;1.20;;;22.40;73.70;;;;;;4947619;29;20083;-83
2022/07/07 12:53:07;;;;;;;6.03;1.55;;;22.30;75.00;;;;;;4946784;29;20129;-80
2022/07/07 12:55:41;;;;;;;4.50;1.30;;;22.10;76.30;;;;;;4946907;29;20032;-75
2022/07/07 12:58:18;;;;;;;3.22;1.35;;;22.00;76.10;;;;;;4946447;29;20036;-76
2022/07/07 13:01:01;;;;;;;5.03;1.35;;;22.00;75.40;;;;;;4946321;29;20044;-80
2022/07/07 13:03:28;;;;;;;3.80;1.30;;;22.00;75.90;;;;;;4945566;29;20039;-78
2022/07/07 13:06:03;;;;;;;4.30;1.40;;;22.20;75.60;;;;;;4945783;29;20036;-83
2022/07/07 13:08:35;;;;;;;3.95;1.40;;;22.50;74.30;;;;;;4962320;29;20273;-83
2022/07/07 13:11:03;;;;;;;4.18;1.23;;;22.60;73.60;;;;;;4961304;29;20042;-79
2022/07/07 13:13:28;;;;;;;2.53;1.33;;;22.70;73.10;;;;;;4946739;29;20075;-77
2022/07/07 13:15:54;;;;;;;3.05;1.40;;;22.90;72.90;;;;;;4949324;28;20043;-76
2022/07/07 13:18:26;;;;;;;4.57;1.30;;;22.90;73.20;;;;;;4963142;29;20046;-79
2022/07/07 13:20:59;;;;;;;2.10;1.13;;;22.90;72.10;;;;;;4962382;29;20043;-80
2022/07/07 13:23:29;;;;;;;4.97;1.45;;;22.90;72.00;;;;;;4950595;29;20054;-81
2022/07/07 13:25:57;;;;;;;3.22;1.20;;;23.10;72.00;;;;;;4944460;29;20027;-79
2022/07/07 13:28:30;;;;;;;2.72;1.65;;;22.90;72.00;;;;;;4944949;29;20035;-79
2022/07/07 13:31:05;;;;;;;6.00;1.30;;;22.70;73.00;;;;;;4945536;29;20043;-80
2022/07/07 13:33:34;;;;;;;4.05;1.40;;;22.60;73.40;;;;;;4947622;29;20336;-80
2022/07/07 13:35:59;;;;;;;3.13;1.35;;;22.60;73.70;;;;;;4946186;29;20194;-79
2022/07/07 13:38:25;;;;;;;4.20;1.45;;;22.60;74.00;;;;;;4961209;29;20059;-78
2022/07/07 13:40:54;;;;;;;3.53;1.27;;;22.80;73.70;;;;;;4946012;29;20054;-79
2022/07/07 13:43:23;;;;;;;3.00;1.20;;;23.20;72.40;;;;;;4959866;29;20057;-78
2022/07/07 13:45:50;;;;;;;2.85;1.10;;;23.40;71.80;;;;;;4944421;29;20107;-79
2022/07/07 13:48:17;;;;;;;2.83;2.00;;;23.60;71.50;;;;;;4945010;29;20031;-80
2022/07/07 13:50:43;;;;;;;3.08;1.20;;;23.90;70.90;;;;;;4945606;29;20076;-80
2022/07/07 13:53:09;;;;;;;3.88;1.40;;;24.00;70.70;;;;;;4945002;29;20485;-79
2022/07/07 13:55:35;;;;;;;4.72;1.38;;;23.90;70.90;;;;;;4945115;29;20047;-80
2022/07/07 13:58:04;;;;;;;2.53;0.90;;;23.50;72.30;;;;;;4944359;29;20034;-79
2022/07/07 14:03:32;;;;;;;4.95;0.90;;;21.90;79.30;;;;;;4918568;29;20111;-82
2022/07/07 14:05:58;;;;;;;1.17;0.50;;;21.30;81.60;;;;;;4925724;29;20050;-77
2022/07/07 14:08:23;;;;;;;1.45;0.60;;;20.90;81.80;;;;;;4925455;29;20027;-79
2022/07/07 14:10:49;;;;;;;1.20;0.50;;;20.50;83.20;;;;;;4927036;29;20040;-81
2022/07/07 14:13:15;;;;;;;2.35;0.63;;;20.20;85.20;;;;;;4925273;29;20059;-79
2022/07/07 14:15:45;;;;;;;1.98;0.55;;;20.00;88.10;;;;;;4927224;29;20024;-79
2022/07/07 14:18:11;;;;;;;1.65;0.80;;;19.80;88.20;;;;;;4963612;28;20094;-79
2022/07/07 14:20:36;;;;;;;2.13;0.70;;;20.00;89.30;;;;;;4964178;28;20269;-79
2022/07/07 14:23:05;;;;;;;2.00;0.70;;;20.10;88.10;;;;;;4964114;29;20039;-80
2022/07/07 14:25:36;;;;;;;1.83;0.70;;;20.10;87.80;;;;;;4962909;29;20232;-78
2022/07/07 14:28:02;;;;;;;1.70;0.60;;;20.00;87.10;;;;;;4963900;28;20035;-80
2022/07/07 14:30:33;;;;;;;1.65;0.70;;;20.00;85.60;;;;;;4962053;28;20359;-79
2022/07/07 14:33:24;;;;;;;1.60;0.68;;;19.80;86.80;;;;;;4978433;28;20043;-78
2022/07/07 14:35:53;;;;;;;2.40;0.55;;;19.70;86.50;;;;;;4964355;29;20150;-78
2022/07/07 14:38:22;;;;;;;3.22;1.00;;;19.50;90.00;;;;;;4978436;28;20384;-81
2022/07/07 14:40:48;;;;;;;1.73;0.85;;;19.40;90.00;;;;;;4963525;28;20112;-82
2022/07/07 14:43:13;;;;;;;1.63;0.90;;;19.20;91.60;;;;;;4963403;28;20147;-81
2022/07/07 14:45:39;;;;;;;2.17;1.00;;;19.10;91.10;;;;;;4977805;28;20054;-80
2022/07/07 14:48:05;;;;;;;1.50;0.73;;;19.30;91.00;;;;;;4962613;28;20039;-81
2022/07/07 14:50:54;;;;;;;2.28;1.13;;;19.50;90.60;;;;;;4963670;28;20030;-82
2022/07/07 14:53:20;;;;;;;2.08;0.70;;;20.10;90.30;;;;;;4945461;28;20556;-80
2022/07/07 14:55:46;;;;;;;1.88;0.70;;;21.40;85.40;;;;;;4944182;29;20059;-79
2022/07/07 14:58:12;;;;;;;1.15;0.57;;;22.00;82.00;;;;;;4943752;29;20020;-78
2022/07/07 15:00:38;;;;;;;1.58;0.77;;;22.20;81.30;;;;;;4943433;29;20039;-78
2022/07/07 15:03:03;;;;;;;1.63;0.70;;;22.40;80.60;;;;;;4943645;29;20230;-78
2022/07/07 15:05:29;;;;;;;1.65;0.52;;;22.90;79.90;;;;;;4942890;29;20038;-78
2022/07/07 15:07:55;;;;;;;3.05;0.70;;;25.60;74.30;;;;;;4943913;29;20060;-81
2022/07/07 15:10:21;;;;;;;1.70;0.70;;;27.50;67.90;;;;;;4943892;29;20036;-79
2022/07/07 15:12:47;;;;;;;1.40;0.40;;;28.00;65.50;;;;;;4943534;29;20046;-81
2022/07/07 15:15:12;;;;;;;2.78;0.40;;;27.70;65.10;;;;;;4943720;29;20019;-76
2022/07/07 15:17:38;;;;;;;1.83;0.60;;;26.60;66.70;;;;;;4958843;29;20033;-76
2022/07/07 15:20:30;;;;;;;1.83;0.60;;;25.40;69.50;;;;;;4961927;28;20027;-74
2022/07/07 15:22:56;;;;;;;1.70;0.50;;;24.20;72.50;;;;;;4956018;28;20043;-77
2022/07/07 15:25:29;;;;;;;1.85;0.55;;;23.30;74.80;;;;;;4976754;28;20047;-77
2022/07/07 15:27:58;;;;;;;2.03;0.60;;;22.60;77.40;;;;;;4962791;28;20035;-77
2022/07/07 15:30:24;;;;;;;1.83;0.60;;;21.90;79.60;;;;;;4961208;28;20035;-78
2022/07/07 15:32:53;;;;;;;1.48;0.68;;;21.50;81.60;;;;;;4963189;29;20601;-78
2022/07/07 15:35:19;;;;;;;1.75;0.90;;;21.30;80.90;;;;;;4963185;28;20030;-77
2022/07/07 15:37:45;;;;;;;2.58;0.68;;;21.10;82.00;;;;;;4965136;28;20115;-77
2022/07/07 15:40:11;;;;;;;1.52;0.60;;;20.90;82.80;;;;;;4967576;28;20103;-76
2022/07/07 15:42:37;;;;;;;1.65;0.80;;;20.80;82.50;;;;;;4973731;28;20015;-77
2022/07/07 15:45:04;;;;;;;1.63;0.60;;;20.80;82.90;;;;;;4971306;28;20028;-76
2022/07/07 15:47:30;;;;;;;4.70;0.98;;;20.70;83.00;;;;;;4965902;29;20280;-78
2022/07/07 15:49:56;;;;;;;3.45;0.68;;;20.60;83.60;;;;;;4977648;28;20038;-76
2022/07/07 15:52:22;;;;;;;2.17;0.60;;;20.60;83.80;;;;;;4957753;28;20047;-75
2022/07/07 15:54:51;;;;;;;2.47;0.88;;;20.70;83.00;;;;;;4943425;29;20032;-78
2022/07/07 15:57:24;;;;;;;1.40;0.50;;;20.70;82.90;;;;;;4942601;29;20046;-78
2022/07/07 15:59:59;;;;;;;1.10;0.60;;;20.60;82.40;;;;;;4943293;29;20071;-77
2022/07/07 16:02:24;;;;;;;1.55;0.60;;;20.50;82.80;;;;;;4942714;29;20106;-80
2022/07/07 16:04:53;;;;;;;2.08;0.52;;;20.40;83.60;;;;;;4943794;29;20078;-82
2022/07/07 16:07:22;;;;;;;1.85;0.85;;;20.40;83.30;;;;;;4926151;29;20055;-84
2022/07/07 16:09:51;;;;;;;1.48;0.60;;;20.40;83.80;;;;;;4943242;29;20032;-79
2022/07/07 16:12:16;;;;;;;2.40;0.60;;;20.40;83.50;;;;;;4926182;29;20054;-79
2022/07/07 16:14:50;;;;;;;2.03;0.95;;;20.40;83.00;;;;;;4943869;29;20087;-80
2022/07/07 16:17:17;;;;;;;2.15;0.50;;;20.40;83.40;;;;;;4938768;29;20047;-81
2022/07/07 16:19:43;;;;;;;1.55;0.60;;;20.30;83.90;;;;;;4977741;28;20015;-79
2022/07/07 16:22:11;;;;;;;2.72;0.63;;;20.30;83.90;;;;;;4961085;29;20118;-82
2022/07/07 16:24:37;;;;;;;1.85;0.82;;;20.40;83.10;;;;;;4962869;29;20202;-80
2022/07/07 16:27:03;;;;;;;1.80;0.73;;;20.60;83.10;;;;;;4962418;28;20042;-82
2022/07/07 16:29:29;;;;;;;3.08;0.70;;;21.00;79.90;;;;;;4962445;28;20027;-75
2022/07/07 16:31:55;;;;;;;2.15;0.60;;;22.20;77.10;;;;;;4962308;28;20039;-75
2022/07/07 16:34:21;;;;;;;3.58;0.60;;;22.80;74.00;;;;;;4964926;28;20023;-76
2022/07/07 16:36:49;;;;;;;1.48;0.60;;;22.70;73.60;;;;;;4965857;29;20047;-78
2022/07/07 16:39:18;;;;;;;3.10;0.77;;;22.50;74.00;;;;;;4965296;29;20042;-75
2022/07/07 16:41:45;;;;;;;3.55;0.80;;;22.40;73.70;;;;;;4965507;28;20050;-76
2022/07/07 16:44:12;;;;;;;2.72;0.75;;;22.20;73.80;;;;;;4965251;28;20023;-75
2022/07/07 16:46:38;;;;;;;3.95;0.90;;;22.20;73.60;;;;;;4964867;28;20043;-77
2022/07/07 16:49:04;;;;;;;2.20;1.00;;;22.10;73.80;;;;;;4965051;28;20042;-77
2022/07/07 16:51:30;;;;;;;3.72;1.17;;;21.90;74.30;;;;;;4965401;28;20039;-76
2022/07/07 16:54:03;;;;;;;1.95;0.73;;;22.00;74.00;;;;;;4947785;28;20314;-79
2022/07/07 16:56:33;;;;;;;2.80;0.57;;;22.00;73.90;;;;;;4944658;29;20111;-78
2022/07/07 16:59:00;;;;;;;4.32;0.82;;;22.10;73.50;;;;;;4935133;29;20035;-80
2022/07/07 17:01:27;;;;;;;2.33;0.70;;;22.10;73.00;;;;;;4941283;29;20059;-79
2022/07/07 17:03:52;;;;;;;2.55;0.75;;;22.10;73.20;;;;;;4941510;29;20215;-77
2022/07/07 17:06:20;;;;;;;3.10;0.80;;;22.20;72.60;;;;;;4925426;29;20067;-78
2022/07/07 17:08:49;;;;;;;1.23;0.70;;;22.10;72.70;;;;;;4926960;29;20036;-78
2022/07/07 17:11:17;;;;;;;2.10;0.80;;;22.10;72.50;;;;;;4926536;29;20080;-78
2022/07/07 17:13:44;;;;;;;2.65;0.90;;;22.00;73.20;;;;;;4941540;29;20055;-78
2022/07/07 17:16:19;;;;;;;2.35;0.60;;;21.80;73.80;;;;;;4935608;28;20082;-76
2022/07/07 17:18:45;;;;;;;3.83;0.70;;;21.50;74.60;;;;;;4950099;29;20098;-78
2022/07/07 17:21:11;;;;;;;1.90;0.63;;;21.30;75.30;;;;;;4961044;29;20032;-77
2022/07/07 17:23:40;;;;;;;1.98;0.68;;;21.20;75.40;;;;;;4960814;29;20037;-78
2022/07/07 17:26:13;;;;;;;2.17;0.80;;;21.20;74.80;;;;;;4945714;29;20078;-80
2022/07/07 17:28:42;;;;;;;2.17;0.60;;;21.00;74.60;;;;;;4948842;29;20031;-76
2022/07/07 17:31:22;;;;;;;;;;;;;;;;;;;;;
2022/07/07 17:33:56;;;;;;;3.80;0.88;;;20.90;75.50;;;;;;4969348;29;20036;-79
2022/07/07 17:36:25;;;;;;;2.63;0.50;;;20.70;75.90;;;;;;4947421;29;20059;-81
2022/07/07 17:38:51;;;;;;;2.50;1.10;;;20.60;75.90;;;;;;4946500;29;20031;-79
2022/07/07 17:41:34;;;;;;;2.45;0.75;;;20.60;76.40;;;;;;4958243;29;20066;-79
2022/07/07 17:44:00;;;;;;;2.92;0.98;;;20.50;76.50;;;;;;4945210;29;20047;-78
2022/07/07 17:46:26;;;;;;;2.45;0.70;;;20.50;76.50;;;;;;4943877;28;20360;-80
2022/07/07 17:49:04;;;;;;;3.35;0.90;;;20.60;76.50;;;;;;4944412;29;20106;-79
2022/07/07 17:51:35;;;;;;;2.92;0.80;;;20.50;76.60;;;;;;4959722;29;20058;-79
2022/07/07 17:54:05;;;;;;;2.38;0.63;;;20.50;76.80;;;;;;4977693;28;20071;-80
2022/07/07 17:56:33;;;;;;;3.60;0.60;;;20.50;76.80;;;;;;4964218;29;20066;-79
2022/07/07 17:58:59;;;;;;;3.08;0.80;;;20.50;77.10;;;;;;4940676;29;20075;-80
2022/07/07 18:01:29;;;;;;;4.07;0.90;;;20.40;77.40;;;;;;4944123;29;20059;-79
2022/07/07 18:03:55;;;;;;;2.95;1.02;;;20.40;77.50;;;;;;4944908;29;20105;-79
2022/07/07 18:06:26;;;;;;;2.22;0.82;;;20.40;77.70;;;;;;4944811;29;20217;-80
2022/07/07 18:08:58;;;;;;;3.28;0.70;;;20.30;77.80;;;;;;4959868;29;20350;-80
2022/07/07 18:11:27;;;;;;;2.55;0.70;;;20.40;77.80;;;;;;4944778;29;20038;-80